»·PEaware :: N592BD KDAL-KSUA

N592BD :: KDAL-KSUA

FLIGHT INFORMATION

Flight Status: Arrived
Operator: Privately registered:
United States
More flights under this callsign
Pilot: Drew L. (13237)
Aircraft: SOCATA TBM-900
(TBM9)
More flights by this aircraft type
Origin: KDAL Dallas Love
United States
Destination: KSUA Witham
United States
More flights between these airports :: More routes between these airports
Route: EMMTT4 MRSSH AEX J58 HRV REDFN Y280 DOLIE
File this flight plan on PilotEdge
Remarks: Level off at 17,000 until HRV for turbulence
Altitude:
(Current/Filed)
17,000ft
Speed:
(Current/Filed)
300kts
Departed: 03-Apr-20 10:09 PM
Arrived: 04-Apr-20 01:06 AM
Distance/Time
Traveled:
927nm/2:57
Distance/Time
To Go:
Arrived

Flight Plot

Page will automatically refresh every two minutes.

Flight plan parsing failed; only flown route is shown


Map Options




Map Legend


Flown Route
Filed Route
Departure Airport
Arrival Airport
Navaid (VOR, NDB)
Fix

Horizontal Profiles

Position Reports

Time Latitude Longitude Heading Altitude Ground
Speed
03-Apr-20 21:39 32.855945 -96.850129 172 477ft 0kts
03-Apr-20 21:40 32.855945 -96.850129 172 477ft 0kts
03-Apr-20 21:41 32.855945 -96.850129 172 477ft 0kts
03-Apr-20 21:42 32.855945 -96.850129 172 477ft 0kts
03-Apr-20 21:43 32.855945 -96.850129 172 477ft 0kts
03-Apr-20 21:44 32.855945 -96.850129 172 477ft 0kts
03-Apr-20 21:45 32.855945 -96.850129 172 477ft 0kts
03-Apr-20 21:46 32.855945 -96.850129 172 477ft 0kts
03-Apr-20 21:47 32.855945 -96.850129 172 477ft 0kts
03-Apr-20 21:48 32.855945 -96.850129 172 477ft 0kts
03-Apr-20 21:49 32.855945 -96.850129 172 477ft 0kts
03-Apr-20 21:50 32.855945 -96.850129 172 477ft 0kts
03-Apr-20 21:51 32.855945 -96.850129 172 477ft 0kts
03-Apr-20 21:52 32.855945 -96.850129 172 477ft 0kts
03-Apr-20 21:53 32.855945 -96.850129 172 477ft 0kts
03-Apr-20 21:54 32.855945 -96.850129 172 477ft 0kts
03-Apr-20 21:55 32.855945 -96.850129 172 477ft 0kts
03-Apr-20 21:56 32.855945 -96.850129 172 477ft 0kts
03-Apr-20 21:57 32.855945 -96.850129 172 477ft 0kts
03-Apr-20 21:58 32.855945 -96.850129 172 477ft 0kts
03-Apr-20 21:59 32.855945 -96.850129 172 477ft 0kts
03-Apr-20 22:00 32.855945 -96.850129 172 477ft 0kts
03-Apr-20 22:01 32.855945 -96.850129 172 477ft 0kts
03-Apr-20 22:02 32.854530 -96.851162 199 476ft 19kts
03-Apr-20 22:03 32.849330 -96.845738 135 486ft 27kts
03-Apr-20 22:04 32.845429 -96.841540 195 486ft 0kts
03-Apr-20 22:05 32.845429 -96.841540 195 486ft 0kts
03-Apr-20 22:06 32.845429 -96.841540 195 486ft 0kts
03-Apr-20 22:07 32.845429 -96.841540 195 486ft 0kts
03-Apr-20 22:08 32.848551 -96.846675 315 483ft 93kts
03-Apr-20 22:09 32.873349 -96.874916 315 1742ft 132kts
03-Apr-20 22:10 32.899883 -96.906685 314 3692ft 135kts
03-Apr-20 22:12 32.933104 -96.899239 35 5493ft 143kts
03-Apr-20 22:13 32.959353 -96.864579 85 7417ft 164kts
03-Apr-20 22:14 32.964066 -96.810537 86 9387ft 166kts
03-Apr-20 22:15 32.948643 -96.762598 127 11194ft 160kts
03-Apr-20 22:16 32.923218 -96.718779 127 12837ft 161kts
03-Apr-20 22:17 32.897156 -96.674086 130 14959ft 164kts
03-Apr-20 22:18 32.870758 -96.629019 133 16908ft 169kts
03-Apr-20 22:19 32.838152 -96.573762 131 17118ft 235kts
03-Apr-20 22:20 32.798251 -96.505717 130 17092ft 258kts
03-Apr-20 22:21 32.756053 -96.433981 130 17086ft 266kts
03-Apr-20 22:22 32.714875 -96.364132 130 17084ft 259kts
03-Apr-20 22:23 32.693360 -96.282223 100 17084ft 273kts
03-Apr-20 22:24 32.687462 -96.191958 100 17083ft 272kts
03-Apr-20 22:25 32.681468 -96.102117 100 17083ft 272kts
03-Apr-20 22:26 32.675420 -96.012441 100 17083ft 272kts
03-Apr-20 22:27 32.669288 -95.922545 100 17076ft 272kts
03-Apr-20 22:28 32.663089 -95.832567 100 17066ft 272kts
03-Apr-20 22:29 32.656819 -95.742478 100 17056ft 272kts
03-Apr-20 22:30 32.650494 -95.652578 100 17056ft 272kts
03-Apr-20 22:31 32.644115 -95.562802 100 17056ft 272kts
03-Apr-20 22:32 32.637658 -95.472880 100 17056ft 272kts
03-Apr-20 22:33 32.631175 -95.383466 100 17056ft 272kts
03-Apr-20 22:33 32.625679 -95.308343 101 17053ft 272kts
03-Apr-20 22:35 32.618111 -95.204814 102 17840ft 248kts
03-Apr-20 22:35 32.613781 -95.145113 107 20114ft 193kts
03-Apr-20 22:36 32.608485 -95.077183 107 21775ft 217kts
03-Apr-20 22:37 32.602839 -95.003472 107 23374ft 235kts
03-Apr-20 22:38 32.596596 -94.922139 103 24930ft 257kts
03-Apr-20 22:40 32.588759 -94.820139 100 26780ft 274kts
03-Apr-20 22:40 32.571279 -94.749642 135 27976ft 265kts
03-Apr-20 22:41 32.529435 -94.676000 136 29353ft 273kts
03-Apr-20 22:42 32.486097 -94.599891 136 30659ft 283kts
03-Apr-20 22:43 32.439390 -94.518155 135 31130ft 323kts
03-Apr-20 22:44 32.386117 -94.424882 133 31122ft 354kts
03-Apr-20 22:45 32.329389 -94.325855 133 31107ft 368kts
03-Apr-20 22:46 32.271302 -94.224727 133 31088ft 372kts
03-Apr-20 22:47 32.212866 -94.123346 133 31072ft 373kts
03-Apr-20 22:48 32.153999 -94.021454 133 31061ft 374kts
03-Apr-20 22:49 32.095144 -93.919822 133 31063ft 374kts
03-Apr-20 22:50 32.036246 -93.818431 133 31066ft 374kts
03-Apr-20 22:51 31.977009 -93.716720 133 31067ft 375kts
03-Apr-20 22:52 31.917764 -93.615281 133 31067ft 375kts
03-Apr-20 22:53 31.858125 -93.513390 133 31073ft 376kts
03-Apr-20 22:54 31.798546 -93.411926 133 31076ft 377kts
03-Apr-20 22:55 31.738751 -93.310278 134 31059ft 376kts
03-Apr-20 22:56 31.679026 -93.209114 134 31060ft 374kts
03-Apr-20 22:57 31.619587 -93.108640 134 31060ft 374kts
03-Apr-20 22:58 31.559794 -93.007926 133 31062ft 376kts
03-Apr-20 22:59 31.499551 -92.906646 132 31062ft 381kts
03-Apr-20 23:00 31.438069 -92.803490 132 31064ft 386kts
03-Apr-20 23:01 31.376169 -92.699936 132 31060ft 388kts
03-Apr-20 23:02 31.313809 -92.595952 132 31064ft 389kts
03-Apr-20 23:03 31.251666 -92.491800 129 31065ft 392kts
03-Apr-20 23:04 31.192843 -92.384013 129 31065ft 392kts
03-Apr-20 23:05 31.134531 -92.277606 129 31059ft 391kts
03-Apr-20 23:06 31.075776 -92.170590 130 31069ft 390kts
03-Apr-20 23:07 31.016874 -92.063800 128 31063ft 391kts
03-Apr-20 23:08 30.957896 -91.956941 128 31067ft 393kts
03-Apr-20 23:09 30.899170 -91.850898 127 31073ft 394kts
03-Apr-20 23:10 30.839334 -91.743106 126 31072ft 395kts
03-Apr-20 23:11 30.779527 -91.635702 126 31076ft 396kts
03-Apr-20 23:12 30.719537 -91.528244 126 31079ft 396kts
03-Apr-20 23:13 30.659328 -91.420735 126 31079ft 397kts
03-Apr-20 23:14 30.598998 -91.313261 127 31062ft 397kts
03-Apr-20 23:15 30.538877 -91.206476 127 31060ft 395kts
03-Apr-20 23:16 30.478830 -91.100128 126 31061ft 394kts
03-Apr-20 23:17 30.418689 -90.993835 126 31066ft 394kts
03-Apr-20 23:18 30.358331 -90.887447 126 31068ft 394kts
03-Apr-20 23:19 30.298000 -90.781417 126 31071ft 394kts
03-Apr-20 23:20 30.237483 -90.675333 126 31071ft 395kts
03-Apr-20 23:21 30.176806 -90.569237 126 31073ft 395kts
03-Apr-20 23:22 30.116105 -90.463398 126 31075ft 396kts
03-Apr-20 23:23 30.054991 -90.357155 126 31081ft 396kts
03-Apr-20 23:24 29.994986 -90.253028 127 31070ft 394kts
03-Apr-20 23:25 29.933923 -90.147422 127 31070ft 394kts
03-Apr-20 23:26 29.873058 -90.042354 127 31070ft 393kts
03-Apr-20 23:27 29.806459 -89.943257 134 31071ft 390kts
03-Apr-20 23:28 29.736512 -89.847856 135 31075ft 390kts
03-Apr-20 23:29 29.666179 -89.752225 134 31075ft 390kts
03-Apr-20 23:30 29.595953 -89.656907 134 31078ft 391kts
03-Apr-20 23:31 29.525603 -89.561633 134 31080ft 392kts
03-Apr-20 23:32 29.454990 -89.466292 134 31081ft 392kts
03-Apr-20 23:33 29.384315 -89.371037 134 31084ft 392kts
03-Apr-20 23:34 29.313526 -89.275882 135 31069ft 391kts
03-Apr-20 23:35 29.243130 -89.181442 135 31066ft 390kts
03-Apr-20 23:36 29.172550 -89.087031 135 31067ft 390kts
03-Apr-20 23:37 29.102171 -88.993067 135 31074ft 389kts
03-Apr-20 23:38 29.031794 -88.899310 135 31069ft 386kts
03-Apr-20 23:39 28.962141 -88.806735 134 31068ft 382kts
03-Apr-20 23:40 28.892717 -88.715122 134 31061ft 380kts
03-Apr-20 23:41 28.854981 -88.602539 105 31067ft 384kts
03-Apr-20 23:42 28.823331 -88.486262 107 31069ft 384kts
03-Apr-20 23:43 28.790870 -88.369625 107 31071ft 385kts
03-Apr-20 23:44 28.758601 -88.254113 107 31058ft 384kts
03-Apr-20 23:45 28.725997 -88.137777 108 31060ft 383kts
03-Apr-20 23:46 28.693379 -88.021814 108 31062ft 383kts
03-Apr-20 23:47 28.660683 -87.906117 108 31064ft 383kts
03-Apr-20 23:48 28.627824 -87.790159 108 31066ft 384kts
03-Apr-20 23:49 28.594920 -87.674476 108 31067ft 384kts
03-Apr-20 23:50 28.561961 -87.559009 108 31069ft 384kts
03-Apr-20 23:51 28.528698 -87.442965 108 31071ft 385kts
03-Apr-20 23:52 28.495373 -87.327053 108 31058ft 385kts
03-Apr-20 23:53 28.461926 -87.211112 108 31055ft 384kts
03-Apr-20 23:54 28.428582 -87.095992 108 31053ft 383kts
03-Apr-20 23:55 28.395107 -86.980776 109 31056ft 382kts
03-Apr-20 23:56 28.361678 -86.866156 109 31056ft 380kts
03-Apr-20 23:57 28.328424 -86.752584 109 31053ft 379kts
03-Apr-20 23:58 28.295173 -86.638771 109 31051ft 379kts
03-Apr-20 23:59 28.262049 -86.525365 109 31052ft 380kts
04-Apr-20 00:00 28.228775 -86.411836 109 31053ft 380kts
04-Apr-20 00:01 28.195353 -86.298203 110 31042ft 379kts
04-Apr-20 00:02 28.161895 -86.184840 110 31043ft 378kts
04-Apr-20 00:03 28.128511 -86.072105 110 31045ft 378kts
04-Apr-20 00:04 28.095041 -85.959441 110 31047ft 378kts
04-Apr-20 00:05 28.061324 -85.846343 110 31048ft 379kts
04-Apr-20 00:06 28.027592 -85.733568 110 31050ft 379kts
04-Apr-20 00:07 27.993560 -85.620252 109 31043ft 380kts
04-Apr-20 00:08 27.959492 -85.507068 109 31044ft 380kts
04-Apr-20 00:09 27.925361 -85.394088 109 31046ft 381kts
04-Apr-20 00:10 27.891015 -85.280809 110 31031ft 380kts
04-Apr-20 00:11 27.868416 -85.164439 100 31033ft 379kts
04-Apr-20 00:12 27.848838 -85.047813 100 31034ft 378kts
04-Apr-20 00:13 27.829213 -84.931584 99 31035ft 376kts
04-Apr-20 00:14 27.809549 -84.815673 99 31034ft 375kts
04-Apr-20 00:15 27.789811 -84.699841 100 31030ft 375kts
04-Apr-20 00:16 27.769974 -84.584117 100 31020ft 376kts
04-Apr-20 00:17 27.750046 -84.468496 99 31014ft 376kts
04-Apr-20 00:18 27.730035 -84.352891 100 31015ft 376kts
04-Apr-20 00:19 27.710217 -84.239048 100 31005ft 375kts
04-Apr-20 00:20 27.690020 -84.123570 100 31007ft 374kts
04-Apr-20 00:21 27.669788 -84.008465 100 31008ft 374kts
04-Apr-20 00:22 27.649373 -83.892995 100 31009ft 375kts
04-Apr-20 00:23 27.628800 -83.777161 100 31011ft 375kts
04-Apr-20 00:24 27.608266 -83.662118 100 31012ft 375kts
04-Apr-20 00:25 27.587535 -83.546560 100 31014ft 376kts
04-Apr-20 00:26 27.566680 -83.430846 100 31015ft 376kts
04-Apr-20 00:27 27.545693 -83.314997 101 31004ft 376kts
04-Apr-20 00:28 27.524661 -83.199550 101 31003ft 375kts
04-Apr-20 00:29 27.503590 -83.084392 101 31000ft 375kts
04-Apr-20 00:30 27.482378 -82.969206 100 30995ft 376kts
04-Apr-20 00:32 27.460617 -82.851488 98 29905ft 392kts
04-Apr-20 00:33 27.438202 -82.730537 98 28442ft 396kts
04-Apr-20 00:34 27.416035 -82.611783 98 26959ft 380kts
04-Apr-20 00:35 27.394733 -82.496700 98 25489ft 371kts
04-Apr-20 00:36 27.373994 -82.384061 98 24031ft 365kts
04-Apr-20 00:37 27.353403 -82.272746 99 22528ft 359kts
04-Apr-20 00:38 27.333097 -82.163538 99 21018ft 354kts
04-Apr-20 00:39 27.313298 -82.057506 99 19982ft 340kts
04-Apr-20 00:40 27.293905 -81.954103 99 18981ft 334kts
04-Apr-20 00:41 27.282336 -81.851781 90 17990ft 328kts
04-Apr-20 00:42 27.276652 -81.749997 90 17006ft 325kts
04-Apr-20 00:43 27.272948 -81.649062 85 16023ft 320kts
04-Apr-20 00:44 27.275761 -81.549942 84 15040ft 307kts
04-Apr-20 00:45 27.278505 -81.457274 85 14042ft 290kts
04-Apr-20 00:46 27.281112 -81.367357 85 13054ft 284kts
04-Apr-20 00:47 27.283605 -81.279345 86 12056ft 280kts
04-Apr-20 00:48 27.286006 -81.191966 85 11053ft 277kts
04-Apr-20 00:49 27.288328 -81.106221 85 9959ft 267kts
04-Apr-20 00:50 27.290499 -81.024402 84 8755ft 257kts
04-Apr-20 00:50 27.292250 -80.957431 85 7375ft 253kts
04-Apr-20 00:52 27.294541 -80.867871 85 5268ft 240kts
04-Apr-20 00:53 27.296384 -80.793827 86 3469ft 236kts
04-Apr-20 00:53 27.297858 -80.732783 87 2037ft 231kts
04-Apr-20 00:55 27.299625 -80.657958 87 1992ft 186kts
04-Apr-20 00:55 27.300715 -80.611236 87 1996ft 174kts
04-Apr-20 00:56 27.291697 -80.558926 109 2004ft 172kts
04-Apr-20 00:57 27.274402 -80.508272 109 2006ft 173kts
04-Apr-20 00:58 27.257066 -80.457532 109 2009ft 174kts
04-Apr-20 00:59 27.241587 -80.406295 116 2117ft 169kts
04-Apr-20 01:00 27.223939 -80.358513 108 2181ft 157kts
04-Apr-20 01:01 27.209549 -80.314686 109 1578ft 141kts
04-Apr-20 01:02 27.197641 -80.278563 109 977ft 94kts
04-Apr-20 01:03 27.189110 -80.252698 109 480ft 86kts
04-Apr-20 01:04 27.180730 -80.227351 105 15ft 75kts
04-Apr-20 01:05 27.176006 -80.216978 280 10ft 13kts
04-Apr-20 01:06 27.176104 -80.218920 287 11ft 0kts
04-Apr-20 01:07 27.176104 -80.218920 287 11ft 0kts
04-Apr-20 01:08 27.176104 -80.218920 287 11ft 0kts
04-Apr-20 01:09 27.176104 -80.218920 287 11ft 0kts
04-Apr-20 01:10 27.176104 -80.218920 287 11ft 0kts

Navigation Log

Ident Type
Flight plan parsing failed, navigation log unavailable